Aérodrome :
LOGIN :

S'inscrire | Disclaimer

   EN    FR    IT 

 










Légende :    VFR   VFR Marginal   IFR   IFR Intensif   IFR Très Intensif
Visi : 
Plafond : 
>= 8 km
>= 3000ft
5 à 8 km
1000 à 3000 ft
1500m à 5 km
500 à 1000 ft
800 à 1500m
200 à 500 ft
< 800m
< 200 ft
Symboles :   Orages  Brouillard  Fortes neiges  Fortes précipitations  Vent > 20 kt
SIGMETs :   Divers  Orages  Givrage  Turbulence  Onde Orograph.  Cendres Volcan.







- Altitude de l'aérodrome : 20 ft
- Code IATA : OIZ


DTTB - Sidi Ahmed Air Base

DERNIER METAR :
  • 280000Z 28005KT 250V310 6000 FEW020 18/15 Q1012

METARs EXPIRÉS :
  • 272300Z VRB02KT 6000 FEW020 19/14 Q1010
  • 272200Z VRB05KT 6000 FEW020 20/14 Q1011

TAF TAF DTTB
Valide du 28 à 01h jusqu'au 29 à 10h UTC


280000Z 2801/2910 VRB05KT 6000 FEW020
Pas de NOTAMs connus pour ce terrain.



MET'MAP, la Météo Aéronautique d'un coup d'oeil ! - Copyright ORBIFLY Décembre 2007 - Disclaimer

ORBIFLY MET'MAP TEAM :

Programmation & Développement : Alexandra Zaïnal
Conception & Développement : Baudouin d'Aumeries
Co-Programmation & Développement : Marc-Olivier Méhu
Soutien technique & logistique : Manuel Goepfert

Contact : metmap@orbifly.com




SOURCES & CREDITS :

   NOAA